Terminal Aerodrome Forecast
Issued by NWS

Home | Current Version | Previous Version | Text Only | Print | Product List | Glossary On
Versions: 1 2 3 4 5 6 7 8 9 10 11 12 13 14
663
FTUS41 KCAR 131720
TAFHUL
TAF
KHUL 131720Z 1318/1418 10007KT P6SM BKN040
     FM132230 03006KT 1SM -SHSN BKN025
      TEMPO 1323/1324 1/2SM SN VV008
     FM140200 35007KT 4SM -SHSN BKN030
     FM140600 35010G18KT P6SM SCT050=

USA.gov is the U.S. government's official web portal to all federal, state and local government web resources and services.